Hauptseite
METAR-TAF:

METAR-TAF

Flughäfen :

Flughafen Sylt

Westerland, Deutschland

Breite: 54-55N, Länge: 008-21E, Höhe: 16 m

Beobachtung

Neuester Wetterbericht von vor 8 Stunden und 2 Minuten, um 15:50 UTC
Wind 15 kt aus Südost
Temperatur 0°C
Luftfeuchtigkeit 74%
Luftdruck 1002 hPa
Sichtweite 10 km oder mehr
keine Wolken unter 1500 m und keine Kumulonimbus oder Gewitterwolken

METAR: EDXW 221550Z 14015KT CAVOK M00/M04 Q1002

Zeit: 00:52 (23:52 UTC)

Prognose

Neuester Wetterbericht von vor 9 Stunden und 52 Minuten, um 14:00 UTC
Gültige Prognose vom 22 um 15 UTC bis 22 um 18 UTC
Wind 15 kt aus Süd/Südost
Sichtweite 10 km oder mehr
keine Wolken unter 1500 m und keine Kumulonimbus oder Gewitterwolken
Wahrscheinlichkeit 30% :
Zeitweise
vom 22 um 15 UTC bis 22 um 18 UTC
Wind 20 kt aus Süd/Südost, Böen bis zu 30 kt

TAF: EDXW 221400Z 2215/2218 15015KT CAVOK PROB30 TEMPO 2215/2218 15020G30KT

Wetterbeobachtungen und Prognosen von mehr als 4000 Flughäfen (METAR und TAF Bericht).

Die verfügbaren Stationen werden durch gelbe und rote Markierungen auf der Karte dargestellt.

Führen Sie die Maus auf sie, um den Namen der Station zu sehen.

Darauf klicken, um die Beobachtung von Wetterbeobachtungen und Prognosen zu sehen.

Um die Karte zu ändern : klicken Sie auf den grünen Tasten mit einem schwarzen Kreuz Zum Vergrößern, auf den grünen Button mit einem Gedankenstrich zu verkleinern, oder auf die grünen Pfeile für benachbarte Karten.


METAR-TAF: